• Join FlightAware (Why Join?)
  • Login
  • US Flag 
04:35PM EDT


 

Airport Tracker/Info


-or-


 

Live Flight TrackerFlight Track Log ✈ DLH507 ✈ 08-May-2013 ✈ SBGR / GRU - EDDF / FRA

Flight Track Log - Related Links

Times and Time Zones

All times are in EDT time to prevent confusion due to time zone crossing. See the DLH507 flight status page for this flight to view local times or setup timezone preferences in your user account.

Time Position Orientation Groundspeed Altitude Reporting Facility
EDT Latitude Longitude Course Direction KTS MPH feet Rate Location/Type
06:12PM -23.4250 -46.4480 73° East 190 219 2,500  Level FlightAware
06:12PM -23.4200 -46.4300 73° East 190 219 3,200 1,620 Climbing FlightAware
06:13PM -23.4080 -46.3890 72° East 206 237 4,400 960 Climbing FlightAware
06:13PM -23.3980 -46.3570 71° East 212 244 4,600 1,200 Climbing FlightAware
06:14PM -23.3850 -46.3150 71° East 265 305 5,600 2,100 Climbing FlightAware
06:14PM -23.3760 -46.2850 72° East 282 325 6,200 1,500 Climbing FlightAware
06:15PM -23.3570 -46.2410 65° Northeast 312 359 7,000 1,320 Climbing FlightAware
06:15PM -23.3440 -46.2280 43° Northeast 323 372 7,300 2,160 Climbing FlightAware
06:15PM -23.3270 -46.2190 26° Northeast 324 373 7,900 3,120 Climbing FlightAware
06:15PM -23.3010 -46.2120 14° North 324 373 8,600 2,700 Climbing FlightAware
06:16PM -23.2320 -46.2050 North 341 392 10,600 1,980 Climbing FlightAware
06:17PM -23.1740 -46.1930 11° North 366 421 11,300 1,080 Climbing FlightAware
06:17PM -23.0980 -46.1720 14° North 406 467 12,100 1,260 Climbing FlightAware
06:18PM -23.0120 -46.1400 19° North 444 511 13,200 1,680 Climbing FlightAware
06:19PM -22.9290 -46.1080 20° North 456 525 14,500 1,920 Climbing FlightAware
06:20PM -22.8390 -46.0740 19° North 462 532 16,000 1,860 Climbing FlightAware
06:20PM -22.7580 -46.0430 19° North 463 533 17,200 1,800 Climbing FlightAware
06:21PM -22.6750 -46.0110 20° North 478 550 18,400 1,620 Climbing FlightAware
06:22PM -22.5900 -45.9790 19° North 479 551 19,400 1,500 Climbing FlightAware
06:22PM -22.4940 -45.9420 20° North 495 570 20,600 1,440 Climbing FlightAware
06:23PM -22.4070 -45.9090 19° North 496 571 21,500 1,380 Climbing FlightAware
06:24PM -22.3040 -45.8700 19° North 514 592 22,600 1,380 Climbing FlightAware
06:24PM -22.2160 -45.8360 20° North 509 586 23,500 1,500 Climbing FlightAware
06:25PM -22.1130 -45.7970 19° North 511 588 24,800 1,620 Climbing FlightAware
06:26PM -22.0340 -45.7670 19° North 514 592 25,700 1,320 Climbing FlightAware
06:26PM -21.9490 -45.7350 19° North 524 603 26,500 1,500 Climbing FlightAware
06:27PM -21.8540 -45.6990 19° North 514 592 27,700 1,740 Climbing FlightAware
06:28PM -21.7510 -45.6600 19° North 515 593 29,000 1,620 Climbing FlightAware
06:28PM -21.6580 -45.6250 19° North 513 590 30,000 1,260 Climbing FlightAware
06:29PM -21.5700 -45.5920 19° North 515 593 30,700 660 Climbing FlightAware
06:30PM -21.4760 -45.5490 23° Northeast 513 590 31,000 180 Climbing FlightAware
06:31PM -21.3930 -45.4950 31° Northeast 512 589 31,000  Level FlightAware
06:31PM -21.3040 -45.4330 33° Northeast 509 586 31,000  Level FlightAware
06:32PM -21.2240 -45.3780 33° Northeast 508 585 31,000  Level FlightAware
06:33PM -21.1460 -45.3240 33° Northeast 507 583 31,000  Level FlightAware
06:33PM -21.0560 -45.2630 32° Northeast 506 582 31,000  Level FlightAware
06:34PM -20.9790 -45.2100 33° Northeast 506 582 31,000  Level FlightAware
06:35PM -20.8880 -45.1490 32° Northeast 505 581 31,000  Level FlightAware
06:35PM -20.8080 -45.0940 33° Northeast 505 581 31,000  Level FlightAware
06:36PM -20.7300 -45.0400 33° Northeast 504 580 31,000  Level FlightAware
06:37PM -20.6410 -44.9800 32° Northeast 504 580 31,000  Level FlightAware
06:38PM -20.5630 -44.9260 33° Northeast 503 579 31,000  Level FlightAware
06:38PM -20.4750 -44.8650 33° Northeast 502 578 31,000  Level FlightAware
06:39PM -20.3970 -44.8120 32° Northeast 503 579 31,000  Level FlightAware
06:40PM -20.3200 -44.7590 33° Northeast 507 583 31,000  Level FlightAware
06:40PM -20.2290 -44.6970 33° Northeast 511 588 31,000  Level FlightAware
06:41PM -20.1490 -44.6430 32° Northeast 515 593 31,000  Level FlightAware
06:42PM -20.0580 -44.5790 33° Northeast 518 596 31,000  Level FlightAware
06:42PM -19.9850 -44.5120 41° Northeast 523 602 31,000  Level FlightAware
06:43PM -19.9180 -44.4380 46° Northeast 524 603 31,000  Level FlightAware
06:44PM -19.8430 -44.3550 46° Northeast 524 603 31,000  Level FlightAware
06:45PM -19.7760 -44.2810 46° Northeast 523 602 31,000  Level FlightAware
06:45PM -19.6980 -44.1970 45° Northeast 522 601 31,000  Level FlightAware
06:46PM -19.6310 -44.1260 45° Northeast 524 603 31,000  Level FlightAware
06:47PM -19.5580 -44.0570 42° Northeast 520 598 31,000  Level FlightAware
06:47PM -19.4610 -44.0070 26° Northeast 520 598 31,000  Level FlightAware
06:48PM -19.3730 -43.9710 21° North 518 596 31,000  Level FlightAware
06:49PM -19.2800 -43.9340 21° North 517 595 31,000  Level FlightAware
06:49PM -19.1790 -43.8930 21° North 518 596 31,000  Level FlightAware
06:50PM -19.0930 -43.8580 21° North 520 598 31,000  Level FlightAware
06:51PM -18.9880 -43.8160 21° North 520 598 31,000  Level FlightAware
06:52PM -18.8990 -43.7790 21° North 520 598 31,000  Level FlightAware
06:52PM -18.8100 -43.7430 21° North 519 597 31,000  Level FlightAware
06:53PM -18.7090 -43.7010 21° North 519 597 31,000  Level FlightAware
06:54PM -18.6190 -43.6650 21° North 519 597 31,000  Level FlightAware
06:54PM -18.5160 -43.6230 21° North 517 595 31,000  Level FlightAware
06:55PM -18.4270 -43.5870 21° North 515 593 31,000  Level FlightAware
06:56PM -18.3350 -43.5500 21° North 514 592 31,000  Level FlightAware
06:56PM -18.2390 -43.5110 21° North 512 589 31,000  Level FlightAware
06:57PM -18.1500 -43.4750 21° North 512 589 31,000  Level FlightAware
06:58PM -18.0500 -43.4350 21° North 512 589 31,000  Level FlightAware
06:59PM -17.9500 -43.3950 21° North 513 590 31,000  Level FlightAware
06:59PM -17.8610 -43.3590 21° North 513 590 31,000  Level FlightAware
07:00PM -17.7610 -43.3190 21° North 512 589 31,000  Level FlightAware
07:01PM -17.6740 -43.2840 21° North 510 587 31,000  Level FlightAware
07:01PM -17.5850 -43.2480 21° North 510 587 31,000  Level FlightAware
07:02PM -17.4850 -43.2080 21° North 509 586 31,000  Level FlightAware
07:03PM -17.3980 -43.1730 21° North 508 585 31,000  Level FlightAware
07:03PM -17.3230 -43.1420 22° Northeast 511 588 31,000  Level FlightAware
07:04PM -17.2340 -43.0980 25° Northeast 513 590 31,000  Level FlightAware
07:05PM -17.1380 -43.0490 26° Northeast 515 593 31,000  Level FlightAware
07:05PM -17.0560 -43.0070 26° Northeast 517 595 31,000  Level FlightAware
07:06PM -16.9530 -42.9540 26° Northeast 521 600 31,000  Level FlightAware
07:07PM -16.8910 -42.9230 26° Northeast 521 600 31,000  Level FlightAware
07:08PM -16.7680 -42.8600 26° Northeast 522 601 31,000  Level FlightAware
07:08PM -16.6810 -42.8160 26° Northeast 523 602 31,000  Level FlightAware
07:09PM -16.5970 -42.7740 26° Northeast 524 603 31,000  Level FlightAware
07:10PM -16.5180 -42.7330 26° Northeast 524 603 31,000  Level FlightAware
07:10PM -16.4440 -42.6960 26° Northeast 524 603 31,000  Level FlightAware
07:11PM -16.3510 -42.6490 26° Northeast 524 603 31,000  Level FlightAware
07:12PM -16.2770 -42.6110 26° Northeast 524 603 31,000  Level FlightAware
07:12PM -16.2030 -42.5730 26° Northeast 524 603 31,000  Level FlightAware
07:13PM -16.1290 -42.5360 26° Northeast 524 603 31,000  Level FlightAware
07:14PM -16.0550 -42.4980 26° Northeast 524 603 31,000  Level FlightAware
07:15PM -15.9620 -42.4510 26° Northeast 524 603 31,000  Level FlightAware
07:15PM -15.8880 -42.4140 26° Northeast 524 603 31,000  Level FlightAware
07:16PM -15.8140 -42.3760 26° Northeast 524 603 31,000  Level FlightAware
07:17PM -15.7400 -42.3380 26° Northeast 524 603 31,000  Level FlightAware
07:17PM -15.6660 -42.3010 26° Northeast 524 603 31,000  Level FlightAware
07:18PM -15.5920 -42.2630 26° Northeast 524 603 31,000  Level FlightAware
07:19PM -15.4990 -42.2160 26° Northeast 524 603 31,000  Level FlightAware
07:21PM -15.2920 -42.0900 30° Northeast  Level Estimated
07:22PM -15.1714 -42.0167 30° Northeast  Level Estimated
07:23PM -15.0507 -41.9435 30° Northeast  Level Estimated
07:24PM -14.9301 -41.8703 30° Northeast  Level Estimated
07:25PM -14.8094 -41.7973 30° Northeast  Level Estimated
07:26PM -14.6887 -41.7243 30° Northeast  Level Estimated
07:27PM -14.5679 -41.6514 30° Northeast  Level Estimated
07:28PM -14.4472 -41.5786 30° Northeast  Level Estimated
07:29PM -14.3264 -41.5059 30° Northeast  Level Estimated
07:30PM -14.2056 -41.4332 30° Northeast  Level Estimated
07:31PM -14.0848 -41.3606 30° Northeast  Level Estimated
07:32PM -13.9639 -41.2881 30° Northeast  Level Estimated
07:33PM -13.8431 -41.2157 30° Northeast  Level Estimated
07:34PM -13.7222 -41.1433 30° Northeast  Level Estimated
07:35PM -13.6012 -41.0711 30° Northeast  Level Estimated
07:36PM -13.4803 -40.9989 30° Northeast  Level Estimated
07:37PM -13.3594 -40.9267 30° Northeast  Level Estimated
07:38PM -13.2384 -40.8547 30° Northeast  Level Estimated
07:39PM -13.1174 -40.7827 30° Northeast  Level Estimated
07:40PM -12.9964 -40.7108 30° Northeast  Level Estimated
07:41PM -12.8754 -40.6389 30° Northeast  Level Estimated
07:42PM -12.7543 -40.5672 30° Northeast  Level Estimated
07:43PM -12.6333 -40.4954 30° Northeast  Level Estimated
07:44PM -12.5122 -40.4238 30° Northeast  Level Estimated
07:45PM -12.3911 -40.3522 30° Northeast  Level Estimated
07:46PM -12.2699 -40.2807 30° Northeast  Level Estimated
07:47PM -12.1488 -40.2093 30° Northeast  Level Estimated
07:48PM -12.0276 -40.1379 30° Northeast  Level Estimated
07:49PM -11.9064 -40.0666 30° Northeast  Level Estimated
07:50PM -11.7852 -39.9954 30° Northeast  Level Estimated
07:51PM -11.6640 -39.9242 30° Northeast  Level Estimated
07:52PM -11.5428 -39.8531 30° Northeast  Level Estimated
07:53PM -11.4215 -39.7820 30° Northeast  Level Estimated
07:54PM -11.3003 -39.7110 30° Northeast  Level Estimated
07:55PM -11.1790 -39.6401 30° Northeast  Level Estimated
07:56PM -11.0577 -39.5692 30° Northeast  Level Estimated
07:57PM -10.9363 -39.4984 30° Northeast  Level Estimated
07:58PM -10.8150 -39.4276 30° Northeast  Level Estimated
07:59PM -10.6937 -39.3569 30° Northeast  Level Estimated
08:00PM -10.5723 -39.2863 30° Northeast  Level Estimated
08:01PM -10.4509 -39.2157 30° Northeast  Level Estimated
08:02PM -10.3295 -39.1451 30° Northeast  Level Estimated
08:03PM -10.2081 -39.0746 30° Northeast  Level Estimated
08:04PM -10.0867 -39.0042 30° Northeast  Level Estimated
08:05PM -9.9652 -38.9338 30° Northeast  Level Estimated
08:06PM -9.8438 -38.8635 30° Northeast  Level Estimated
08:07PM -9.7223 -38.7932 30° Northeast  Level Estimated
08:08PM -9.6008 -38.7230 30° Northeast  Level Estimated
08:09PM -9.4793 -38.6529 30° Northeast  Level Estimated
08:10PM -9.3578 -38.5827 30° Northeast  Level Estimated
08:11PM -9.2363 -38.5127 30° Northeast  Level Estimated
08:12PM -9.1147 -38.4426 30° Northeast  Level Estimated
08:13PM -8.9932 -38.3727 30° Northeast  Level Estimated
08:14PM -8.8716 -38.3027 30° Northeast  Level Estimated
08:15PM -8.7500 -38.2328 30° Northeast  Level Estimated
08:16PM -8.6284 -38.1630 30° Northeast  Level Estimated
08:17PM -8.5068 -38.0932 30° Northeast  Level Estimated
08:18PM -8.3852 -38.0235 30° Northeast  Level Estimated
08:19PM -8.2635 -37.9538 30° Northeast  Level Estimated
08:20PM -8.1419 -37.8841 30° Northeast  Level Estimated
08:21PM -8.0203 -37.8145 30° Northeast  Level Estimated
08:22PM -7.8986 -37.7449 30° Northeast  Level Estimated
08:23PM -7.7769 -37.6754 30° Northeast  Level Estimated
08:24PM -7.6552 -37.6059 30° Northeast  Level Estimated
08:25PM -7.5335 -37.5364 30° Northeast  Level Estimated
08:26PM -7.4118 -37.4670 29° Northeast  Level Estimated
08:27PM -7.2901 -37.3976 29° Northeast  Level Estimated
08:28PM -7.1684 -37.3283 29° Northeast  Level Estimated
08:29PM -7.0466 -37.2590 29° Northeast  Level Estimated
08:30PM -6.9249 -37.1897 29° Northeast  Level Estimated
08:31PM -6.8031 -37.1205 29° Northeast  Level Estimated
08:31PM -6.0650 -37.7570 29° Northeast 496 571 33,000  Level FlightAware
08:32PM -6.6813 -37.0513 29° Northeast  Level Estimated
08:32PM -5.9670 -37.7120 25° Northeast 495 570 33,000  Level FlightAware
08:33PM -5.8490 -37.6590 24° Northeast 495 570 33,000  Level FlightAware
08:34PM -5.7540 -37.6160 24° Northeast 495 570 33,000  Level FlightAware
08:34PM -5.6690 -37.5770 25° Northeast 496 571 33,000  Level FlightAware
08:35PM -5.5880 -37.5410 24° Northeast 496 571 33,000  Level FlightAware
08:36PM -5.5010 -37.5020 24° Northeast 495 570 33,000  Level FlightAware
08:36PM -5.4090 -37.4600 24° Northeast 494 568 33,000  Level FlightAware
08:38PM -5.2750 -37.4000 24° Northeast 493 567 33,000  Level FlightAware
08:38PM -5.1890 -37.3590 25° Northeast 493 567 33,000  Level FlightAware
08:39PM -5.1040 -37.3130 28° Northeast 493 567 33,000  Level FlightAware
08:40PM -5.0350 -37.2750 29° Northeast 492 566 33,000  Level FlightAware
08:40PM -4.9510 -37.2280 29° Northeast 491 565 33,000  Level FlightAware
08:41PM -4.8520 -37.1730 29° Northeast 491 565 33,000  Level FlightAware
08:42PM -4.7690 -37.1270 29° Northeast 491 565 33,000  Level FlightAware
08:42PM -4.6820 -37.0790 29° Northeast 490 564 33,000  Level FlightAware
08:43PM -4.6030 -37.0360 28° Northeast 490 564 33,000  Level FlightAware
08:44PM -4.5210 -36.9900 29° Northeast 489 563 33,000  Level FlightAware
08:45PM -4.4330 -36.9410 29° Northeast 489 563 33,000  Level FlightAware
08:45PM -4.3530 -36.8970 29° Northeast 488 562 33,000  Level FlightAware
08:46PM -4.2750 -36.8540 29° Northeast 488 562 33,000  Level FlightAware
08:47PM -4.1840 -36.8040 29° Northeast 489 563 33,000  Level FlightAware
08:47PM -4.1030 -36.7590 29° Northeast 491 565 33,000  Level FlightAware
08:48PM -4.0150 -36.7110 29° Northeast 492 566 33,000  Level FlightAware
08:49PM -3.9360 -36.6670 29° Northeast 492 566 33,000  Level FlightAware
08:49PM -3.8570 -36.6240 29° Northeast 492 566 33,000  Level FlightAware
08:50PM -3.7750 -36.5780 29° Northeast 492 566 33,000  Level FlightAware
08:51PM -3.6560 -36.5130 29° Northeast 490 564 33,000  Level FlightAware
08:52PM -3.5750 -36.4680 29° Northeast 490 564 33,000  Level FlightAware
08:52PM -3.5020 -36.4280 29° Northeast 490 564 33,000  Level FlightAware
08:53PM -3.4200 -36.3820 29° Northeast 490 564 33,000  Level FlightAware
08:54PM -3.2970 -36.3150 29° Northeast 492 566 33,000  Level FlightAware
08:57PM -2.9977 -36.1434 30° Northeast  Level Estimated
08:58PM -2.8763 -36.0738 30° Northeast  Level Estimated
08:59PM -2.7550 -36.0043 30° Northeast  Level Estimated
09:00PM -2.6336 -35.9347 30° Northeast  Level Estimated
09:00PM -2.5980 -35.9300 30° Northeast 494 568 33,000  Level FlightAware
09:01PM -2.5180 -35.8870 28° Northeast 494 568 33,000  Level FlightAware
09:01PM -2.4490 -35.8510 28° Northeast 494 568 33,000  Level FlightAware
09:02PM -2.3800 -35.8140 28° Northeast 494 568 33,000  Level FlightAware
09:03PM -2.3120 -35.7780 28° Northeast 494 568 33,000  Level FlightAware
09:03PM -2.2430 -35.7410 28° Northeast 494 568 33,000  Level FlightAware
09:04PM -2.1570 -35.6960 28° Northeast 494 568 33,000  Level FlightAware
09:05PM -2.0890 -35.6590 29° Northeast 494 568 33,000  Level FlightAware
09:05PM -2.0200 -35.6230 28° Northeast 494 568 33,000  Level FlightAware
09:06PM -1.9520 -35.5860 29° Northeast 494 568 33,000  Level FlightAware
09:07PM -1.8830 -35.5500 28° Northeast 494 568 33,000  Level FlightAware
09:08PM -1.7970 -35.5040 28° Northeast 494 568 33,000  Level FlightAware
09:08PM -1.7290 -35.4680 28° Northeast 494 568 33,000  Level FlightAware
09:09PM -1.6600 -35.4310 28° Northeast 494 568 33,000  Level FlightAware
09:10PM -1.5910 -35.3950 28° Northeast 494 568 33,000  Level FlightAware
09:12PM -1.3754 -35.2716 30° Northeast  Level Estimated
09:13PM -1.2610 -35.2061 30° Northeast  Level Estimated
09:14PM -1.1465 -35.1406 30° Northeast  Level Estimated
09:15PM -1.0321 -35.0751 30° Northeast  Level Estimated
09:16PM -0.9176 -35.0096 30° Northeast  Level Estimated
09:17PM -0.8031 -34.9441 30° Northeast  Level Estimated
09:18PM -0.6887 -34.8786 30° Northeast  Level Estimated
09:19PM -0.5742 -34.8131 30° Northeast  Level Estimated
09:20PM -0.4597 -34.7476 30° Northeast  Level Estimated
09:21PM -0.3384 -34.6782 30° Northeast  Level Estimated
09:22PM -0.2170 -34.6088 30° Northeast  Level Estimated
09:23PM -0.0956 -34.5393 30° Northeast  Level Estimated
09:24PM 0.0257 -34.4699 30° Northeast  Level Estimated
09:25PM 0.1471 -34.4005 30° Northeast  Level Estimated
09:26PM 0.2685 -34.3311 30° Northeast  Level Estimated
09:27PM 0.3898 -34.2616 30° Northeast  Level Estimated
09:28PM 0.5112 -34.1922 30° Northeast  Level Estimated
09:29PM 0.6326 -34.1228 30° Northeast  Level Estimated
09:30PM 0.7540 -34.0533 30° Northeast  Level Estimated
09:31PM 0.8753 -33.9839 30° Northeast  Level Estimated
09:32PM 0.9967 -33.9144 30° Northeast  Level Estimated
09:33PM 1.1181 -33.8450 30° Northeast  Level Estimated
09:34PM 1.2394 -33.7755 30° Northeast  Level Estimated
09:35PM 1.3608 -33.7061 30° Northeast  Level Estimated
09:36PM 1.4821 -33.6366 30° Northeast  Level Estimated
09:37PM 1.6035 -33.5671 30° Northeast  Level Estimated
09:38PM 1.7249 -33.4976 30° Northeast  Level Estimated
09:39PM 1.8462 -33.4281 30° Northeast  Level Estimated
09:40PM 1.9676 -33.3586 30° Northeast  Level Estimated
09:41PM 2.0889 -33.2891 30° Northeast  Level Estimated
09:42PM 2.2103 -33.2196 30° Northeast  Level Estimated
09:43PM 2.3316 -33.1500 30° Northeast  Level Estimated
09:44PM 2.4529 -33.0805 30° Northeast  Level Estimated
09:45PM 2.5743 -33.0109 30° Northeast  Level Estimated
09:46PM 2.6956 -32.9413 30° Northeast  Level Estimated
09:47PM 2.8169 -32.8717 30° Northeast  Level Estimated
09:48PM 2.9383 -32.8022 30° Northeast  Level Estimated
09:49PM 3.0596 -32.7325 30° Northeast  Level Estimated
09:50PM 3.1809 -32.6629 30° Northeast  Level Estimated
09:51PM 3.3022 -32.5933 30° Northeast  Level Estimated
09:52PM 3.4235 -32.5236 30° Northeast  Level Estimated
09:53PM 3.5448 -32.4539 30° Northeast  Level Estimated
09:54PM 3.6661 -32.3842 30° Northeast  Level Estimated
09:55PM 3.7874 -32.3145 30° Northeast  Level Estimated
09:56PM 3.9086 -32.2447 30° Northeast  Level Estimated
09:57PM 4.0299 -32.1750 30° Northeast  Level Estimated
09:58PM 4.1512 -32.1052 30° Northeast  Level Estimated
09:59PM 4.2725 -32.0354 30° Northeast  Level Estimated
10:00PM 4.3937 -31.9656 30° Northeast  Level Estimated
10:01PM 4.5150 -31.8957 30° Northeast  Level Estimated
10:02PM 4.6362 -31.8258 30° Northeast  Level Estimated
10:03PM 4.7575 -31.7559 30° Northeast  Level Estimated
10:04PM 4.8787 -31.6860 30° Northeast  Level Estimated
10:05PM 4.9999 -31.6161 30° Northeast  Level Estimated
10:06PM 5.1211 -31.5461 30° Northeast  Level Estimated
10:07PM 5.2423 -31.4761 30° Northeast  Level Estimated
10:08PM 5.3635 -31.4061 30° Northeast  Level Estimated
10:09PM 5.4847 -31.3360 30° Northeast  Level Estimated
10:10PM 5.6059 -31.2659 30° Northeast  Level Estimated
10:11PM 5.7271 -31.1958 30° Northeast  Level Estimated
10:12PM 5.8482 -31.1257 30° Northeast  Level Estimated
10:13PM 5.9694 -31.0555 30° Northeast  Level Estimated
10:14PM 6.0906 -30.9853 30° Northeast  Level Estimated
10:15PM 6.2117 -30.9151 30° Northeast  Level Estimated
10:16PM 6.3328 -30.8448 30° Northeast  Level Estimated
10:17PM 6.4539 -30.7745 30° Northeast  Level Estimated
10:18PM 6.5751 -30.7042 30° Northeast  Level Estimated
10:19PM 6.6962 -30.6338 30° Northeast  Level Estimated
10:20PM 6.8172 -30.5634 30° Northeast  Level Estimated
10:21PM 6.9383 -30.4930 30° Northeast  Level Estimated
10:22PM 7.0594 -30.4225 30° Northeast  Level Estimated
10:23PM 7.1805 -30.3520 30° Northeast  Level Estimated
10:24PM 7.3015 -30.2815 30° Northeast  Level Estimated
10:25PM 7.4226 -30.2109 30° Northeast  Level Estimated
10:26PM 7.5436 -30.1402 30° Northeast  Level Estimated
10:27PM 7.6646 -30.0696 30° Northeast  Level Estimated
10:28PM 7.7856 -29.9988 30° Northeast  Level Estimated
10:29PM 7.9066 -29.9281 30° Northeast  Level Estimated
10:30PM 8.0276 -29.8573 30° Northeast  Level Estimated
10:31PM 8.1486 -29.7865 30° Northeast  Level Estimated
10:32PM 8.2695 -29.7156 30° Northeast  Level Estimated
10:33PM 8.3905 -29.6447 30° Northeast  Level Estimated
10:34PM 8.5114 -29.5737 30° Northeast  Level Estimated
10:35PM 8.6323 -29.5027 30° Northeast  Level Estimated
10:36PM 8.7532 -29.4317 30° Northeast  Level Estimated
10:37PM 8.8741 -29.3606 30° Northeast  Level Estimated
10:38PM 8.9950 -29.2894 30° Northeast  Level Estimated
10:39PM 9.1159 -29.2182 30° Northeast  Level Estimated
10:40PM 9.2367 -29.1470 30° Northeast  Level Estimated
10:41PM 9.3575 -29.0757 30° Northeast  Level Estimated
10:42PM 9.4784 -29.0044 30° Northeast  Level Estimated
10:43PM 9.5992 -28.9330 30° Northeast  Level Estimated
10:44PM 9.7200 -28.8615 30° Northeast  Level Estimated
10:45PM 9.8408 -28.7901 30° Northeast  Level Estimated
10:46PM 9.9615 -28.7185 30° Northeast  Level Estimated
10:47PM 10.0823 -28.6469 30° Northeast  Level Estimated
10:48PM 10.2030 -28.5753 30° Northeast  Level Estimated
10:49PM 10.3237 -28.5036 30° Northeast  Level Estimated
10:50PM 10.4444 -28.4318 30° Northeast  Level Estimated
10:51PM 10.5651 -28.3600 30° Northeast  Level Estimated
10:52PM 10.6858 -28.2881 30° Northeast  Level Estimated
10:53PM 10.8064 -28.2162 30° Northeast  Level Estimated
10:54PM 10.9271 -28.1442 30° Northeast  Level Estimated
10:55PM 11.0477 -28.0721 30° Northeast  Level Estimated
10:56PM 11.1683 -28.0000 30° Northeast  Level Estimated
10:57PM 11.2889 -27.9279 30° Northeast  Level Estimated
10:58PM 11.4095 -27.8557 30° Northeast  Level Estimated
10:59PM 11.5300 -27.7834 30° Northeast  Level Estimated
11:00PM 11.6505 -27.7110 30° Northeast  Level Estimated
11:01PM 11.7711 -27.6386 30° Northeast  Level Estimated
11:02PM 11.8916 -27.5661 30° Northeast  Level Estimated
11:03PM 12.0120 -27.4936 30° Northeast  Level Estimated
11:04PM 12.1325 -27.4210 31° Northeast  Level Estimated
11:05PM 12.2529 -27.3483 31° Northeast  Level Estimated
11:06PM 12.3734 -27.2756 31° Northeast  Level Estimated
11:07PM 12.4938 -27.2028 31° Northeast  Level Estimated
11:08PM 12.6141 -27.1299 31° Northeast  Level Estimated
11:09PM 12.7345 -27.0570 31° Northeast  Level Estimated
11:10PM 12.8548 -26.9840 31° Northeast  Level Estimated
11:11PM 12.9752 -26.9109 31° Northeast  Level Estimated
11:12PM 13.0955 -26.8377 31° Northeast  Level Estimated
11:13PM 13.2157 -26.7645 31° Northeast  Level Estimated
11:14PM 13.3360 -26.6912 31° Northeast  Level Estimated
11:15PM 13.4562 -26.6179 31° Northeast  Level Estimated
11:16PM 13.5765 -26.5444 31° Northeast  Level Estimated
11:17PM 13.6967 -26.4709 31° Northeast  Level Estimated
11:18PM 13.8168 -26.3973 31° Northeast  Level Estimated
11:19PM 13.9370 -26.3237 31° Northeast  Level Estimated
11:20PM 14.0571 -26.2499 31° Northeast  Level Estimated
11:21PM 14.1772 -26.1761 31° Northeast  Level Estimated
11:22PM 14.2973 -26.1022 31° Northeast  Level Estimated
11:23PM 14.4174 -26.0282 31° Northeast  Level Estimated
11:24PM 14.5374 -25.9541 31° Northeast  Level Estimated
11:25PM 14.6574 -25.8800 31° Northeast  Level Estimated
11:26PM 14.7774 -25.8058 31° Northeast  Level Estimated
11:27PM 14.8974 -25.7315 31° Northeast  Level Estimated
11:28PM 15.0174 -25.6571 31° Northeast  Level Estimated
11:29PM 15.1373 -25.5826 31° Northeast  Level Estimated
11:30PM 15.2572 -25.5081 31° Northeast  Level Estimated
11:31PM 15.3770 -25.4335 31° Northeast  Level Estimated
11:32PM 15.4969 -25.3587 31° Northeast  Level Estimated
11:33PM 15.6167 -25.2839 31° Northeast  Level Estimated
11:34PM 15.7365 -25.2090 31° Northeast  Level Estimated
11:35PM 15.8563 -25.1340 31° Northeast  Level Estimated
11:36PM 15.9760 -25.0590 31° Northeast  Level Estimated
11:37PM 16.0958 -24.9838 31° Northeast  Level Estimated
11:38PM 16.2154 -24.9086 31° Northeast  Level Estimated
11:39PM 16.3351 -24.8332 31° Northeast  Level Estimated
11:40PM 16.4548 -24.7578 31° Northeast  Level Estimated
11:41PM 16.5744 -24.6822 31° Northeast  Level Estimated
11:42PM 16.6940 -24.6066 31° Northeast  Level Estimated
11:43PM 16.8135 -24.5309 31° Northeast  Level Estimated
11:44PM 16.9330 -24.4551 31° Northeast  Level Estimated
11:45PM 17.0525 -24.3792 31° Northeast  Level Estimated
11:46PM 17.1720 -24.3032 31° Northeast  Level Estimated
11:47PM 17.2915 -24.2271 31° Northeast  Level Estimated
11:48PM 17.4109 -24.1508 31° Northeast  Level Estimated
11:49PM 17.5303 -24.0745 31° Northeast  Level Estimated
11:50PM 17.6496 -23.9981 31° Northeast  Level Estimated
11:51PM 17.7690 -23.9216 31° Northeast  Level Estimated
11:52PM 17.8883 -23.8450 31° Northeast  Level Estimated
11:53PM 18.0075 -23.7683 31° Northeast  Level Estimated
11:54PM 18.1268 -23.6915 31° Northeast  Level Estimated
11:55PM 18.2460 -23.6145 31° Northeast  Level Estimated
11:56PM 18.3652 -23.5375 32° Northeast  Level Estimated
11:57PM 18.4843 -23.4604 32° Northeast  Level Estimated
11:58PM 18.6034 -23.3832 32° Northeast  Level Estimated
11:59PM 18.7225 -23.3058 32° Northeast  Level Estimated
12:00AM 18.8416 -23.2283 32° Northeast  Level Estimated
12:01AM 18.9606 -23.1508 32° Northeast  Level Estimated
12:02AM 19.0796 -23.0731 32° Northeast  Level Estimated
12:03AM 19.1985 -22.9953 32° Northeast  Level Estimated
12:04AM 19.3175 -22.9174 32° Northeast  Level Estimated
12:05AM 19.4364 -22.8394 32° Northeast  Level Estimated
12:06AM 19.5552 -22.7612 32° Northeast  Level Estimated
12:07AM 19.6740 -22.6830 32° Northeast  Level Estimated
12:08AM 19.7928 -22.6046 32° Northeast  Level Estimated
12:09AM 19.9116 -22.5262 32° Northeast  Level Estimated
12:10AM 20.0303 -22.4476 32° Northeast  Level Estimated
12:11AM 20.1490 -22.3688 32° Northeast  Level Estimated
12:12AM 20.2677 -22.2900 32° Northeast  Level Estimated
12:13AM 20.3863 -22.2111 32° Northeast  Level Estimated
12:14AM 20.5049 -22.1320 32° Northeast  Level Estimated
12:15AM 20.6234 -22.0528 32° Northeast  Level Estimated
12:16AM 20.7419 -21.9734 32° Northeast  Level Estimated
12:17AM 20.8604 -21.8940 32° Northeast  Level Estimated
12:18AM 20.9788 -21.8144 32° Northeast  Level Estimated
12:19AM 21.0972 -21.7347 32° Northeast  Level Estimated
12:20AM 21.2156 -21.6549 32° Northeast  Level Estimated
12:21AM 21.3339 -21.5749 32° Northeast  Level Estimated
12:22AM 21.4522 -21.4949 32° Northeast  Level Estimated
12:23AM 21.5704 -21.4147 32° Northeast  Level Estimated
12:24AM 21.6886 -21.3343 32° Northeast  Level Estimated
12:25AM 21.8068 -21.2538 32° Northeast  Level Estimated
12:26AM 21.9249 -21.1732 32° Northeast  Level Estimated
12:27AM 22.0430 -21.0925 32° Northeast  Level Estimated
12:28AM 22.1611 -21.0116 32° Northeast  Level Estimated
12:29AM 22.2791 -20.9306 32° Northeast  Level Estimated
12:30AM 22.3971 -20.8494 32° Northeast  Level Estimated
12:31AM 22.5150 -20.7682 32° Northeast  Level Estimated
12:32AM 22.6329 -20.6867 33° Northeast  Level Estimated
12:33AM 22.7507 -20.6052 33° Northeast  Level Estimated
12:34AM 22.8685 -20.5235 33° Northeast  Level Estimated
12:35AM 22.9863 -20.4416 33° Northeast  Level Estimated
12:36AM 23.1040 -20.3596 33° Northeast  Level Estimated
12:37AM 23.2217 -20.2775 33° Northeast  Level Estimated
12:37AM 23.9180 -20.2350 33° Northeast 530 610 35,000  Level FlightAware
12:38AM 23.3393 -20.1952 33° Northeast  Level Estimated
12:38AM 24.0130 -20.1690 32° Northeast 531 611 35,000  Level FlightAware
12:39AM 24.0990 -20.1100 32° Northeast 531 611 35,000  Level FlightAware
12:40AM 24.1860 -20.0500 32° Northeast 531 611 35,000  Level FlightAware
12:40AM 24.2750 -19.9880 32° Northeast 531 611 35,000  Level FlightAware
12:41AM 24.3690 -19.9230 32° Northeast 532 612 35,000  Level FlightAware
12:42AM 24.4520 -19.8650 32° Northeast 533 613 35,000  Level FlightAware
12:42AM 24.5280 -19.8130 32° Northeast 533 613 35,000  Level FlightAware
12:43AM 24.6420 -19.7340 32° Northeast 533 613 35,000  Level FlightAware
12:44AM 24.7130 -19.6850 32° Northeast 533 613 35,000  Level FlightAware
12:45AM 24.7840 -19.6360 32° Northeast 533 613 35,000  Level FlightAware
12:45AM 24.8730 -19.5750 32° Northeast 533 613 35,000  Level FlightAware
12:46AM 25.0020 -19.4820 33° Northeast 537 618 35,000  Level FlightAware
12:47AM 25.1240 -19.3960 33° Northeast 538 619 35,000  Level FlightAware
12:48AM 25.2070 -19.3370 33° Northeast 538 619 35,000  Level FlightAware
12:48AM 25.3030 -19.2690 33° Northeast 539 620 35,000  Level FlightAware
12:49AM 25.3860 -19.2110 32° Northeast 539 620 35,000  Level FlightAware
12:50AM 25.4810 -19.1440 32° Northeast 539 620 35,000  Level FlightAware
12:51AM 25.5640 -19.0840 33° Northeast 534 615 35,000  Level FlightAware
12:51AM 25.6620 -19.0150 32° Northeast 535 616 35,000  Level FlightAware
12:52AM 25.7450 -18.9560 33° Northeast 535 616 35,000  Level FlightAware
12:53AM 25.8400 -18.8880 33° Northeast 535 616 35,000  Level FlightAware
12:53AM 25.9250 -18.8280 32° Northeast 535 616 35,000  Level FlightAware
12:54AM 26.0080 -18.7680 33° Northeast 535 616 35,000  Level FlightAware
12:55AM 26.1040 -18.6990 33° Northeast 536 617 35,000  Level FlightAware
12:55AM 26.1890 -18.6380 33° Northeast 537 618 35,000  Level FlightAware
12:56AM 26.2820 -18.5720 32° Northeast 537 618 35,000  Level FlightAware
12:57AM 26.3650 -18.5110 33° Northeast 537 618 35,000  Level FlightAware
12:58AM 26.4510 -18.4490 33° Northeast 538 619 35,000  Level FlightAware
12:58AM 26.5360 -18.3880 33° Northeast 538 619 35,000  Level FlightAware
12:59AM 26.6330 -18.3180 33° Northeast 538 619 35,000 60 Level FlightAware
01:00AM 26.7290 -18.2480 33° Northeast 536 617 35,100 300 Climbing FlightAware
01:00AM 26.8250 -18.1780 33° Northeast 541 623 35,500 480 Climbing FlightAware
01:01AM 26.9070 -18.1180 33° Northeast 542 624 35,800 360 Climbing FlightAware
01:02AM 26.9830 -18.0630 33° Northeast 539 620 36,000 120 Climbing FlightAware
01:03AM 27.0880 -17.9860 33° Northeast 538 619 36,000  Level FlightAware
01:03AM 27.2030 -17.9010 33° Northeast 537 618 36,000  Level FlightAware
01:04AM 27.2890 -17.8380 33° Northeast 538 619 36,000  Level FlightAware
01:05AM 27.3830 -17.7690 33° Northeast 538 619 36,000  Level FlightAware
01:06AM 27.4670 -17.7070 33° Northeast 538 619 36,000  Level FlightAware
01:07AM 27.6080 -17.6020 33° Northeast 539 620 36,000  Level FlightAware
01:08AM 27.7560 -17.4930 33° Northeast 540 621 36,000  Level FlightAware
01:09AM 27.9030 -17.3830 33° Northeast 541 623 36,000  Level FlightAware
01:10AM 28.0940 -17.2790 26° Northeast 541 623 36,000  Level FlightAware
01:12AM 28.2620 -17.2170 18° North 540 621 36,000  Level FlightAware
01:13AM 28.4280 -17.1560 18° North 539 620 36,000  Level FlightAware
01:14AM 28.5950 -17.0940 18° North 539 620 36,000  Level FlightAware
01:15AM 28.7180 -17.0480 18° North 539 620 36,000  Level FlightAware
01:16AM 28.8310 -17.0060 18° North 540 621 36,000  Level FlightAware
01:16AM 28.9370 -16.9660 18° North 541 623 36,000  Level FlightAware
01:17AM 29.0330 -16.9300 18° North 541 623 36,000  Level FlightAware
01:18AM 29.1370 -16.8910 18° North 542 624 36,000  Level FlightAware
01:18AM 29.2370 -16.8540 18° North 542 624 36,000  Level FlightAware
01:19AM 29.3280 -16.8190 19° North 542 624 36,000  Level FlightAware
01:20AM 29.4380 -16.7780 18° North 543 625 36,000  Level FlightAware
01:20AM 29.5320 -16.7420 18° North 544 626 36,000  Level FlightAware
01:21AM 29.6290 -16.7060 18° North 545 627 36,000  Level FlightAware
01:22AM 29.7340 -16.6660 18° North 545 627 36,000  Level FlightAware
01:23AM 29.8350 -16.6270 19° North 547 629 36,000  Level FlightAware
01:23AM 29.9120 -16.5980 18° North 548 631 36,000  Level FlightAware
01:24AM 30.0320 -16.5520 18° North 548 631 36,000  Level FlightAware
01:25AM 30.1400 -16.5110 18° North 550 633 36,000  Level FlightAware
01:25AM 30.2380 -16.4730 19° North 550 633 36,000  Level FlightAware
01:26AM 30.3760 -16.4200 18° North 550 633 36,000  Level FlightAware
01:27AM 30.4780 -16.3800 19° North 550 633 36,000  Level FlightAware
01:28AM 30.5810 -16.3410 18° North 551 634 36,000  Level FlightAware
01:28AM 30.6760 -16.3040 19° North 551 634 36,000  Level FlightAware
01:29AM 30.7860 -16.2610 19° North 552 635 36,000  Level FlightAware
01:30AM 30.8830 -16.2230 19° North 551 634 36,000  Level FlightAware
01:31AM 30.9850 -16.1840 18° North 551 634 36,000  Level FlightAware
01:31AM 31.0920 -16.1390 20° North 554 638 36,000  Level FlightAware
01:32AM 31.1850 -16.0910 24° Northeast 555 639 36,000  Level FlightAware
01:33AM 31.2870 -16.0360 25° Northeast 556 640 36,000  Level FlightAware
01:33AM 31.3820 -15.9870 24° Northeast 556 640 36,000  Level FlightAware
01:34AM 31.4860 -15.9320 24° Northeast 557 641 36,000  Level FlightAware
01:35AM 31.5790 -15.8810 25° Northeast 558 642 36,000  Level FlightAware
01:35AM 31.6790 -15.8270 25° Northeast 559 643 36,000  Level FlightAware
01:36AM 31.7830 -15.7700 25° Northeast 559 643 36,000  Level FlightAware
01:37AM 31.8750 -15.7200 25° Northeast 558 642 36,000  Level FlightAware
01:38AM 31.9830 -15.6610 25° Northeast 559 643 36,000  Level FlightAware
01:38AM 32.0740 -15.6110 25° Northeast 559 643 36,000  Level FlightAware
01:39AM 32.1700 -15.5580 25° Northeast 560 644 36,000  Level FlightAware
01:40AM 32.2730 -15.5000 25° Northeast 561 646 36,000  Level FlightAware
01:40AM 32.3690 -15.4480 25° Northeast 562 647 36,000  Level FlightAware
01:41AM 32.4770 -15.3880 25° Northeast 561 646 36,000  Level FlightAware
01:42AM 32.5710 -15.3350 25° Northeast 561 646 36,000  Level FlightAware
01:42AM 32.6620 -15.2850 25° Northeast 560 644 36,000  Level FlightAware
01:43AM 32.7670 -15.2260 25° Northeast 559 643 36,000  Level FlightAware
01:44AM 32.8630 -15.1720 25° Northeast 560 644 36,000  Level FlightAware
01:45AM 32.9690 -15.1120 25° Northeast 559 643 36,000  Level FlightAware
01:45AM 33.0620 -15.0600 25° Northeast 559 643 36,000  Level FlightAware
01:46AM 33.1520 -15.0090 25° Northeast 559 643 36,000  Level FlightAware
01:47AM 33.2600 -14.9480 25° Northeast 559 643 36,000  Level FlightAware
01:47AM 33.3550 -14.8940 25° Northeast 559 643 36,000  Level FlightAware
01:48AM 33.4610 -14.8330 26° Northeast 559 643 36,000  Level FlightAware
01:49AM 33.5540 -14.7800 25° Northeast 558 642 36,000  Level FlightAware
01:49AM 33.6440 -14.7290 25° Northeast 559 643 36,000  Level FlightAware
01:50AM 33.7180 -14.6860 26° Northeast 559 643 36,000  Level FlightAware
01:51AM 33.8090 -14.6350 25° Northeast 559 643 36,000  Level FlightAware
01:51AM 33.8890 -14.5900 25° Northeast 559 643 36,000  Level FlightAware
01:52AM 33.9890 -14.5340 25° Northeast 559 643 36,000  Level FlightAware
01:53AM 34.0680 -14.4890 25° Northeast 559 643 36,000  Level FlightAware
01:53AM 34.1480 -14.4440 25° Northeast 559 643 36,000  Level FlightAware
01:54AM 34.2280 -14.3990 25° Northeast 559 643 36,000  Level FlightAware
01:55AM 34.3080 -14.3540 25° Northeast 559 643 36,000  Level FlightAware
01:55AM 34.3870 -14.3090 25° Northeast 559 643 36,000  Level FlightAware
01:56AM 34.4870 -14.2530 25° Northeast 559 643 36,000  Level FlightAware
01:57AM 34.5670 -14.2080 25° Northeast 559 643 36,000  Level FlightAware
01:58AM 34.6460 -14.1630 25° Northeast 559 643 36,000  Level FlightAware
01:58AM 34.7260 -14.1170 25° Northeast 559 643 36,000  Level FlightAware
01:59AM 34.8060 -14.0720 25° Northeast 559 643 36,000  Level FlightAware
02:00AM 34.9050 -14.0160 25° Northeast 559 643 36,000  Level FlightAware
02:02AM 35.0875 -13.8257 40° Northeast  Level Estimated
02:03AM 35.1937 -13.7144 41° Northeast  Level Estimated
02:04AM 35.2997 -13.6028 41° Northeast  Level Estimated
02:05AM 35.4057 -13.4909 41° Northeast  Level Estimated
02:06AM 35.5115 -13.3788 41° Northeast  Level Estimated
02:07AM 35.6173 -13.2663 41° Northeast  Level Estimated
02:08AM 35.7229 -13.1536 41° Northeast  Level Estimated
02:09AM 35.8285 -13.0405 41° Northeast  Level Estimated
02:10AM 35.9339 -12.9272 41° Northeast  Level Estimated
02:11AM 36.0392 -12.8135 41° Northeast  Level Estimated
02:12AM 36.1445 -12.6996 41° Northeast  Level Estimated
02:13AM 36.2496 -12.5853 41° Northeast  Level Estimated
02:14AM 36.3546 -12.4708 41° Northeast  Level Estimated
02:15AM 36.4595 -12.3559 41° Northeast  Level Estimated
02:16AM 36.5643 -12.2407 41° Northeast  Level Estimated
02:17AM 36.6690 -12.1252 41° Northeast  Level Estimated
02:18AM 36.7735 -12.0094 42° Northeast  Level Estimated
02:19AM 36.8780 -11.8932 42° Northeast  Level Estimated
02:20AM 36.9823 -11.7768 42° Northeast  Level Estimated
02:21AM 37.0865 -11.6600 42° Northeast  Level Estimated
02:22AM 37.1907 -11.5429 42° Northeast  Level Estimated
02:23AM 37.2946 -11.4255 42° Northeast  Level Estimated
02:24AM 37.3985 -11.3078 42° Northeast  Level Estimated
02:25AM 37.5023 -11.1897 42° Northeast  Level Estimated
02:26AM 37.6059 -11.0713 42° Northeast  Level Estimated
02:27AM 37.7094 -10.9526 42° Northeast  Level Estimated
02:28AM 37.8128 -10.8335 42° Northeast  Level Estimated
02:29AM 37.9161 -10.7142 42° Northeast  Level Estimated
02:30AM 38.0193 -10.5944 42° Northeast  Level Estimated
02:31AM 38.1223 -10.4744 42° Northeast  Level Estimated
02:32AM 38.2252 -10.3540 43° Northeast  Level Estimated
02:33AM 38.3280 -10.2332 43° Northeast  Level Estimated
02:34AM 38.4307 -10.1121 43° Northeast  Level Estimated
02:35AM 38.5333 -9.9907 43° Northeast  Level Estimated
02:36AM 38.6357 -9.8689 43° Northeast  Level Estimated
02:37AM 38.7380 -9.7468 43° Northeast  Level Estimated
02:38AM 38.8401 -9.6243 43° Northeast  Level Estimated
02:39AM 38.9422 -9.5015 43° Northeast  Level Estimated
02:40AM 39.0457 -9.3763 43° Northeast  Level Estimated
02:41AM 39.1492 -9.2508 43° Northeast  Level Estimated
02:41AM 40.8600 -10.1360 43° Northeast 566 651 36,000  Level FlightAware
02:42AM 39.2524 -9.1249 43° Northeast  Level Estimated
02:43AM 39.3556 -8.9986 43° Northeast  Level Estimated
02:44AM 39.4586 -8.8720 43° Northeast  Level Estimated
02:44AM 41.2210 -9.8770 28° Northeast 565 650 36,000  Level FlightAware
02:44AM 41.3410 -9.7910 28° Northeast 566 651 36,000  Level FlightAware
02:45AM 41.4400 -9.7190 29° Northeast 564 649 36,000  Level FlightAware
02:46AM 41.5740 -9.6200 29° Northeast 553 636 36,000  Level FlightAware
02:48AM 41.8830 -9.3940 50° Northeast 559 643 36,000  Level FlightAware
02:49AM 41.7837 -9.2844 50° Northeast  Level Estimated
02:49AM 41.9800 -9.3120 32° Northeast 562 647 36,000  Level FlightAware
02:50AM 42.1400 -9.1650 34° Northeast 564 649 36,000  Level FlightAware
02:51AM 42.2160 -9.0950 34° Northeast 565 650 36,000  Level FlightAware
02:52AM 42.3200 -8.9980 35° Northeast 564 649 36,000  Level FlightAware
02:52AM 42.3930 -8.9300 35° Northeast 563 648 36,000  Level FlightAware
02:55AM 42.5734 -8.6200 52° Northeast  Level Estimated
02:56AM 42.6612 -8.4681 52° Northeast  Level Estimated
02:57AM 42.7487 -8.3158 52° Northeast  Level Estimated
02:58AM 42.8360 -8.1630 52° Northeast  Level Estimated
02:58AM 43.0670 -8.2260 52° Northeast 573 659 36,000  Level FlightAware
02:59AM 43.1510 -8.1050 46° Northeast 572 658 36,000  Level FlightAware
02:59AM 43.2260 -7.9950 47° Northeast 573 659 36,000  Level FlightAware
03:00AM 43.2910 -7.8990 47° Northeast 572 658 36,000  Level FlightAware
03:01AM 43.3800 -7.7710 46° Northeast 575 662 36,000  Level FlightAware
03:01AM 43.4510 -7.6670 47° Northeast 575 662 36,000  Level FlightAware
03:02AM 43.5390 -7.5370 47° Northeast 573 659 36,000  Level FlightAware
03:03AM 43.6120 -7.4300 47° Northeast 573 659 36,000  Level FlightAware
03:04AM 43.6910 -7.3120 47° Northeast 574 661 36,000  Level FlightAware
03:04AM 43.7640 -7.2030 47° Northeast 573 659 36,000  Level FlightAware
03:05AM 43.8360 -7.0960 47° Northeast 574 661 36,000  Level FlightAware
03:06AM 43.9190 -6.9720 47° Northeast 574 661 36,000  Level FlightAware
03:06AM 43.9890 -6.8660 47° Northeast 574 661 36,000  Level FlightAware
03:07AM 44.0620 -6.7550 48° Northeast 574 661 36,000  Level FlightAware
03:08AM 44.1420 -6.6340 47° Northeast 574 661 36,000  Level FlightAware
03:08AM 44.2090 -6.5320 47° Northeast 574 661 36,000  Level FlightAware
03:09AM 44.2730 -6.4350 47° Northeast 575 662 36,000  Level FlightAware
03:10AM 44.3610 -6.3000 48° Northeast 575 662 36,000  Level FlightAware
03:11AM 44.4410 -6.1760 48° Northeast 574 661 36,000  Level FlightAware
03:11AM 44.5000 -6.0850 48° Northeast 575 662 36,000  Level FlightAware
03:12AM 44.5710 -5.9730 48° Northeast 574 661 36,000  Level FlightAware
03:13AM 44.6470 -5.8550 48° Northeast 574 661 36,000  Level FlightAware
03:13AM 44.7070 -5.7610 48° Northeast 574 661 36,000  Level FlightAware
03:14AM 44.7520 -5.6070 68° East 36,000  Level FlightAware
03:15AM 44.8200 -5.4580 57° Northeast 579 666 36,000  Level FlightAware
03:15AM 44.8700 -5.3500 57° Northeast 579 666 36,000  Level FlightAware
03:16AM 44.9320 -5.2150 57° Northeast 579 666 36,000  Level FlightAware
03:17AM 44.9810 -5.1070 57° Northeast 579 666 36,000  Level FlightAware
03:18AM 45.1220 -4.9420 40° Northeast 569 655 36,000  Level FlightAware
03:18AM 45.1710 -4.8610 49° Northeast 569 655 36,000  Level FlightAware
03:19AM 45.2570 -4.7160 50° Northeast 568 654 36,000  Level FlightAware
03:20AM 45.3370 -4.5790 50° Northeast 568 654 36,000  Level FlightAware
03:20AM 45.4050 -4.4650 50° Northeast 568 654 36,000  Level FlightAware
03:21AM 45.4730 -4.3490 50° Northeast 568 654 36,000  Level FlightAware
03:22AM 45.5430 -4.2280 50° Northeast 568 654 36,000  Level FlightAware
03:22AM 45.6100 -4.1130 50° Northeast 569 655 36,000  Level FlightAware
03:23AM 45.6890 -3.9760 50° Northeast 568 654 36,000  Level FlightAware
03:24AM 45.7440 -3.8800 51° Northeast 567 652 36,000  Level FlightAware
03:24AM 45.8220 -3.7450 50° Northeast 566 651 36,000  Level FlightAware
03:25AM 45.8950 -3.6150 51° Northeast 565 650 36,000  Level FlightAware
03:26AM 45.9610 -3.5000 50° Northeast 565 650 36,000  Level FlightAware
03:27AM 46.0350 -3.3690 51° Northeast 564 649 36,000  Level FlightAware
03:27AM 46.1030 -3.2480 51° Northeast 563 648 36,000  Level FlightAware
03:28AM 46.1680 -3.1320 51° Northeast 563 648 36,000  Level FlightAware
03:29AM 46.2370 -3.0080 51° Northeast 562 647 36,000  Level FlightAware
03:29AM 46.3010 -2.8930 51° Northeast 563 648 36,000  Level FlightAware
03:30AM 46.3730 -2.7630 51° Northeast 563 648 36,000  Level FlightAware
03:31AM 46.4430 -2.6350 52° Northeast 563 648 36,000  Level FlightAware
03:31AM 46.5090 -2.5160 51° Northeast 563 648 36,000  Level FlightAware
03:32AM 46.5800 -2.3850 52° Northeast 563 648 36,000  Level FlightAware
03:33AM 46.6420 -2.2700 52° Northeast 563 648 36,000  Level FlightAware
03:34AM 46.7170 -2.1320 52° Northeast 562 647 36,000  Level FlightAware
03:34AM 46.7780 -2.0140 53° Northeast 563 648 36,000  Level FlightAware
03:35AM 46.8500 -1.8720 53° Northeast 562 647 36,000  Level FlightAware
03:36AM 46.9120 -1.7520 53° Northeast 563 648 36,000  Level FlightAware
03:36AM 46.9750 -1.6290 53° Northeast 562 647 36,000  Level FlightAware
03:37AM 47.0420 -1.4980 53° Northeast 561 646 36,000  Level FlightAware
03:38AM 47.1040 -1.3740 54° Northeast 559 643 36,000  Level FlightAware
03:39AM 47.1750 -1.2330 53° Northeast 559 643 36,000  Level FlightAware
03:39AM 47.2370 -1.1110 53° Northeast 558 642 36,000  Level FlightAware
03:40AM 47.2970 -0.9910 54° Northeast 548 631 36,000  Level FlightAware
03:41AM 47.3630 -0.8580 54° Northeast 549 632 36,000  Level FlightAware
03:41AM 47.4230 -0.7370 54° Northeast 549 632 36,000  Level FlightAware
03:42AM 47.4820 -0.6160 54° Northeast 549 632 36,000  Level FlightAware
03:43AM 47.5510 -0.4750 54° Northeast 550 633 36,000  Level FlightAware
03:43AM 47.6110 -0.3520 54° Northeast 551 634 36,000  Level FlightAware
03:44AM 47.6760 -0.2200 54° Northeast 552 635 36,000  Level FlightAware
03:45AM 47.7340 -0.0980 55° Northeast 553 636 36,000  Level FlightAware
03:46AM 47.8030 0.0460 54° Northeast 553 636 36,000  Level FlightAware
03:46AM 47.8389 0.1198 54° Northeast 554 638 36,000  Level FlightAware ADS-B
03:46AM 47.8843 0.2147 54° Northeast 554 638 36,000  Level FlightAware ADS-B
03:47AM 47.9529 0.3588 55° Northeast 554 638 36,000  Level FlightAware ADS-B
03:48AM 48.0011 0.4609 55° Northeast 553 636 36,000  Level FlightAware ADS-B
03:48AM 48.0495 0.5637 55° Northeast 553 636 36,000  Level FlightAware ADS-B
03:49AM 48.0937 0.6578 55° Northeast 552 635 36,000  Level FlightAware ADS-B
03:49AM 48.1410 0.7588 55° Northeast 552 635 36,000  Level FlightAware ADS-B
03:50AM 48.1853 0.8536 55° Northeast 550 633 36,000  Level FlightAware ADS-B
03:50AM 48.2298 0.9491 55° Northeast 550 633 36,000  Level FlightAware ADS-B
03:51AM 48.2810 1.0597 55° Northeast 550 633 36,000  Level FlightAware ADS-B
03:51AM 48.3261 1.1574 55° Northeast 551 634 36,000 -1,860 Level FlightAware ADS-B
03:52AM 48.3539 1.2175 55° Northeast 476 548 34,500  Descending FlightAware UK
03:52AM 48.3710 1.2553 55° Northeast 550 633 36,000  Climbing FlightAware ADS-B
03:52AM 48.3969 1.3112 55° Northeast 476 548 34,500  Descending FlightAware UK
03:53AM 48.4220 1.3665 55° Northeast 549 632 36,000 1,800 Climbing FlightAware ADS-B
03:53AM 48.4661 1.4634 56° Northeast 550 633 36,000 -1,920 Level FlightAware ADS-B
03:53AM 48.4922 1.5204 56° Northeast 476 548 34,500  Descending FlightAware UK
03:54AM 48.5158 1.5725 56° Northeast 550 633 36,000 1,680 Climbing FlightAware ADS-B
03:54AM 48.5644 1.6797 56° Northeast 549 632 36,000  Level FlightAware ADS-B
03:55AM 48.6073 1.7751 56° Northeast 547 629 36,000 -2,040 Level FlightAware ADS-B
03:55AM 48.6298 1.8242 56° Northeast 480 552 34,500  Descending FlightAware UK
03:55AM 48.6507 1.8716 56° Northeast 546 628 36,000 1,920 Climbing FlightAware ADS-B
03:56AM 48.6903 1.9708 59° Northeast 547 629 36,000  Level FlightAware ADS-B
03:56AM 48.7084 2.0272 64° Northeast 547 629 36,000  Level FlightAware ADS-B
03:56AM 48.7279 2.1027 69° East 548 631 36,000 -2,280 Level FlightAware ADS-B
03:57AM 48.7423 2.1710 69° East 478 550 34,500  Descending FlightAware UK
03:57AM 48.7500 2.2140 69° East 547 629 36,000 2,040 Climbing FlightAware ADS-B
03:57AM 48.7719 2.3292 74° East 546 628 36,000  Level FlightAware ADS-B
03:58AM 48.7947 2.4519 74° East 546 628 36,000  Level FlightAware ADS-B
03:58AM 48.8154 2.5645 74° East 546 628 36,000  Level FlightAware ADS-B
03:59AM 48.8357 2.6763 75° East 546 628 36,000  Level FlightAware ADS-B
04:00AM 48.8585 2.8013 74° East 546 628 36,000  Level FlightAware ADS-B
04:00AM 48.8798 2.9169 74° East 546 628 36,000  Level FlightAware ADS-B
04:01AM 48.9010 3.0326 74° East 546 628 36,000  Level FlightAware ADS-B
04:01AM 48.9228 3.1520 74° East 546 628 36,000  Level FlightAware ADS-B
04:02AM 48.9429 3.2626 74° East 546 628 36,000  Level FlightAware ADS-B
04:02AM 48.9640 3.3806 75° East 546 628 36,000  Level FlightAware ADS-B
04:03AM 48.9841 3.4928 75° East 545 627 36,000  Level FlightAware ADS-B
04:04AM 49.0188 3.6884 75° East 545 627 36,000  Level FlightAware ADS-B
04:04AM 49.0381 3.7993 75° East 545 627 36,000  Level FlightAware ADS-B
04:05AM 49.0735 4.0036 75° East 545 627 36,000  Level FlightAware ADS-B
04:05AM 49.0930 4.1169 75° East 545 627 36,000  Level FlightAware ADS-B
04:06AM 49.1131 4.2365 76° East 545 627 36,000  Level FlightAware ADS-B
04:07AM 49.1354 4.3501 73° East 544 626 36,000  Level FlightAware ADS-B
04:07AM 49.1707 4.4765 67° East 542 624 36,000  Level FlightAware ADS-B
04:08AM 49.2298 4.6855 67° East 542 624 36,000  Level FlightAware ADS-B
04:09AM 49.2930 4.9210 68° East 538 619 36,000  Level FlightAware
04:10AM 49.3290 5.0580 68° East 541 623 36,000  Level FlightAware
04:11AM 49.3670 5.2070 69° East 540 621 36,000 -120 Level FlightAware
04:11AM 49.4100 5.3680 68° East 541 623 35,900 -780 Descending FlightAware
04:12AM 49.4590 5.4990 60° Northeast 547 629 34,900 -1,560 Descending FlightAware
04:13AM 49.5330 5.6330 50° Northeast 544 626 33,700 -1,560 Descending FlightAware
04:13AM 49.6000 5.7450 47° Northeast 548 631 32,700 -1,560 Descending FlightAware
04:14AM 49.6780 5.8760 47° Northeast 557 641 31,500 -1,680 Descending FlightAware
04:15AM 49.7490 5.9970 48° Northeast 567 652 30,400 -1,680 Descending FlightAware
04:16AM 49.8170 6.1120 47° Northeast 566 651 29,300 -1,860 Descending FlightAware
04:16AM 49.8970 6.2510 48° Northeast 559 643 27,800 -2,100 Descending FlightAware
04:17AM 49.9660 6.3690 48° Northeast 536 617 26,400 -2,040 Descending FlightAware
04:18AM 50.0290 6.4780 48° Northeast 517 595 25,100 -1,860 Descending FlightAware
04:18AM 50.0890 6.5940 51° Northeast 499 574 23,800 -2,100 Descending FlightAware
04:19AM 50.1230 6.7440 70° East 481 554 22,200 -2,040 Descending FlightAware
04:20AM 50.1240 6.9670 90° East 463 533 20,100 -1,920 Descending FlightAware
04:21AM 50.1220 7.1110 91° East 450 518 18,600 -1,920 Descending FlightAware
04:22AM 50.1200 7.2320 91° East 438 504 17,400 -1,980 Descending FlightAware
04:22AM 50.1170 7.3760 92° East 426 490 15,800 -2,160 Descending FlightAware
04:23AM 50.1150 7.5060 91° East 416 479 14,400 -2,040 Descending FlightAware
04:24AM 50.1130 7.6270 91° East 407 468 13,100 -1,020 Descending FlightAware
04:24AM 50.0990 7.7470 100° East 378 435 13,000 -120 Descending FlightAware
04:25AM 50.0780 7.8530 107° East 371 427 13,000  Level FlightAware
04:26AM 50.0550 7.9680 107° East 373 429 13,000  Level FlightAware
04:27AM 50.0350 8.0680 107° East 366 421 13,000 -240 Level FlightAware
04:27AM 50.0150 8.1700 107° East 371 427 12,700 -840 Descending FlightAware
04:28AM 49.9940 8.2700 108° East 360 414 11,900 -1,020 Descending FlightAware
04:29AM 49.9720 8.3790 107° East 336 387 11,300 -660 Descending FlightAware
04:29AM 49.9540 8.4670 108° East 304 350 11,000 -240 Descending FlightAware
04:30AM 49.9470 8.5710 96° East 290 334 11,000  Level FlightAware
04:31AM 49.9700 8.6690 70° East 291 335 11,000 -480 Level FlightAware
04:32AM 49.9870 8.7580 73° East 288 331 10,300 -960 Descending FlightAware
04:32AM 49.9980 8.8160 74° East 282 325 9,800 -1,020 Descending FlightAware
04:33AM 50.0070 8.8640 74° East 282 325 9,400 -900 Descending FlightAware
04:33AM 50.0180 8.9220 74° East 281 323 9,000 -900 Descending FlightAware
04:34AM 50.0280 8.9740 73° East 282 325 8,600 -1,140 Descending FlightAware
04:34AM 50.0360 9.0310 78° East 280 322 8,000 -1,140 Descending FlightAware
04:34AM 50.0420 9.0760 78° East 276 318 7,600 -1,080 Descending FlightAware
04:35AM 50.0460 9.1090 79° East 273 314 7,300 -1,200 Descending FlightAware
04:35AM 50.0530 9.1650 79° East 272 313 6,700 -1,140 Descending FlightAware
04:36AM 50.0610 9.2190 77° East 266 306 6,200 -1,380 Descending FlightAware
04:36AM 50.0690 9.2390 58° Northeast 271 312 5,800 -2,160 Descending FlightAware
04:36AM 50.0860 9.2560 33° Northeast 279 321 5,300 -1,440 Descending FlightAware
04:36AM 50.1020 9.2650 20° North 280 322 5,100 -960 Descending FlightAware
04:37AM 50.1380 9.2540 349° North 275 316 4,600 -1,080 Descending FlightAware
04:37AM 50.1480 9.2390 316° Northwest 266 306 4,400 -1,200 Descending FlightAware
04:37AM 50.1560 9.2110 294° West 258 297 4,100 -540 Descending FlightAware
04:38AM 50.1640 9.1580 283° West 254 292 4,000 -180 Descending FlightAware
04:38AM 50.1670 9.1330 281° West 250 288 4,000  Level FlightAware
04:38AM 50.1650 9.1170 259° West 246 283 4,000  Level FlightAware
04:39AM 50.1530 9.0650 250° West 249 287 4,000  Level FlightAware
04:39AM 50.1410 9.0140 250° West 252 290 4,000  Level FlightAware
04:40AM 50.1310 8.9700 250° West 245 282 4,000  Level FlightAware
04:40AM 50.1200 8.9260 249° West 224 258 4,000  Level FlightAware
04:41AM 50.1110 8.8870 250° West 204 235 4,000 -120 Level FlightAware
04:41AM 50.1020 8.8470 251° West 201 231 3,900 -720 Descending FlightAware
04:42AM 50.0920 8.8070 249° West 195 224 3,300 -1,140 Descending FlightAware
04:42AM 50.0850 8.7760 251° West 188 216 2,900 -1,020 Descending FlightAware
04:42AM 50.0760 8.7400 249° West 173 199 2,400 -1,020 Descending FlightAware
04:43AM 50.0690 8.7100 250° West 160 184 2,000 -780 Descending FlightAware
04:43AM 50.0620 8.6810 249° West 149 171 1,700 -840 Descending FlightAware
04:44AM 50.0550 8.6500 251° West 147 169 1,200 -900 Descending FlightAware
04:44AM 50.0490 8.6240 250° West 146 168 900 -780 Descending FlightAware
04:45AM 50.0420 8.5950 249° West 149 171 500 -840 Descending FlightAware